LiveATC.Net - Listen to live air traffic control over the Internet!


ICAO: LPPT  IATA: LIS   Airport: Lisboa Airport
City: Lisbon
Country: Portugal   Continent: Europe
LPPT METAR Weather: LPPT 191000Z 20013KT 8000 -RADZ FEW008 BKN010 18/17 Q1009 RERA
LPPT Flight Activity (FlightAware)

LPPT Approach
Feed Status: UP   Listeners: 4
Listen in your browser - HTML5 player (in browser, HTML5)
Click here to listen with your own player (launches your MP3 player)
LPPT Approach Audio Archives
FacilityFrequency
Lisbon Approach119.100

NOTICE

Unauthorized use prohibited. See LiveATC.net Terms of Service


Airport/ARTCC Code
Frequency Search
(e.g., 124.400, 128.75)
Site-wide search
 


Browse LiveATC Feeds
Top 50 LiveATC Feeds
LiveATC Feed Map
Bad Weather Areas

LiveATC FAQ
Offer LiveATC feed
Contact LiveATC.net
Press Inquiries

LiveATC on iPhone
LiveATC on Android

Windows Phone
Windows 8/10

LiveATC Mobile
(Mobile browser)

ATC Audio Archives
Interesting Recordings

LiveATC Forums


Home Page
About LiveATC.net
Make a Donation
Terms of Use
Privacy Policy

Canadian Air Freqs

AIRMETs/SIGMETs

FAA Airport Status
Nat'l Airspace Status
Arrival Demand Charts


Server Software By:
Icecast.org
Liquidsoap